Time;durP1;ratioP1;P1;durP2;ratioP2;P2;SDS_P1;SDS_P2;PMS_P1;PMS_P2;Temp;Humidity;BMP_temperature;BMP_pressure;BME280_temperature;BME280_humidity;BME280_pressure;Samples;Min_cycle;Max_cycle;Signal;HPM_P1;HPM_P2
2022/09/22 00:02:20;;;;;;;;;;;;;;;9.48;72.56;102451.22;5046255;28;20449;-58
2022/09/22 00:04:45;;;;;;;;;;;;;;;9.48;72.54;102445.06;5049503;28;19921;-58
2022/09/22 00:07:11;;;;;;;;;;;;;;;9.47;72.64;102440.72;5046836;28;20037;-58
2022/09/22 00:09:36;;;;;;;;;;;;;;;9.47;72.66;102446.88;5049013;28;19920;-57
2022/09/22 00:12:01;;;;;;;;;;;;;;;9.44;72.51;102449.78;5045858;28;19923;-58
2022/09/22 00:14:27;;;;;;;;;;;;;;;9.41;72.92;102439.41;5045413;28;20280;-57
2022/09/22 00:16:57;;;;;;;;;;;;;;;9.42;72.56;102445.56;5047405;28;20336;-58
2022/09/22 00:19:22;;;;;;;;;;;;;;;9.41;73.08;102436.78;5045847;28;19920;-58
2022/09/22 00:21:48;;;;;;;;;;;;;;;9.42;72.96;102442.91;5048646;28;19939;-58
2022/09/22 00:24:13;;;;;;;;;;;;;;;9.39;73.25;102433.41;5049543;28;20011;-58
2022/09/22 00:26:39;;;;;;;;;;;;;;;9.37;73.12;102437.16;5045259;28;20396;-58
2022/09/22 00:29:06;;;;;;;;;;;;;;;9.35;73.17;102439.91;5045539;28;19920;-57
2022/09/22 00:31:32;;;;;;;;;;;;;;;9.33;73.27;102444.50;5047599;28;20003;-57
2022/09/22 00:33:57;;;;;;;;;;;;;;;9.29;73.31;102441.25;5049858;28;19999;-57
2022/09/22 00:36:25;;;;;;;;;;;;;;;9.29;73.48;102433.31;5046699;28;19935;-57
2022/09/22 00:38:50;;;;;;;;;;;;;;;9.27;73.32;102437.91;5051964;28;20455;-58
2022/09/22 00:41:22;;;;;;;;;;;;;;;9.25;73.60;102436.31;5045744;28;20059;-58
2022/09/22 00:43:48;;;;;;;;;;;;;;;9.22;73.54;102429.44;5046191;28;19931;-58
2022/09/22 00:46:24;;;;;;;;;;;;;;;9.20;73.61;102433.19;5046066;28;19966;-57
2022/09/22 00:48:55;;;;;;;;;;;;;;;9.18;73.60;102440.41;5049226;28;19972;-58
2022/09/22 00:51:23;;;;;;;;;;;;;;;9.17;73.44;102436.91;5044875;28;19986;-58
2022/09/22 00:53:48;;;;;;;;;;;;;;;9.16;73.64;102427.28;5046022;28;19916;-58
2022/09/22 00:56:16;;;;;;;;;;;;;;;9.13;73.20;102427.53;5045708;28;19913;-58
2022/09/22 00:58:44;;;;;;;;;;;;;;;9.14;73.23;102428.38;5044514;28;20384;-58
2022/09/22 01:01:09;;;;;;;;;;;;;;;9.10;73.18;102419.84;5046387;28;19917;-58
2022/09/22 01:03:38;;;;;;;;;;;;;;;9.06;73.40;102414.91;5047017;28;19916;-58
2022/09/22 01:06:05;;;;;;;;;;;;;;;9.04;73.39;102411.53;5045961;28;19974;-58
2022/09/22 01:08:30;;;;;;;;;;;;;;;9.01;73.30;102409.97;5045992;28;19959;-58
2022/09/22 01:10:58;;;;;;;;;;;;;;;8.99;73.40;102409.25;5047773;28;20413;-58
2022/09/22 01:13:26;;;;;;;;;;;;;;;8.85;73.59;102386.50;5044290;28;19917;-57
2022/09/22 01:16:06;;;;;;;;;;;;;;;8.95;73.36;102405.13;5045148;28;19968;-57
2022/09/22 01:18:50;;;;;;;;;;;;;;;8.89;73.35;102408.28;5045573;28;19979;-58
2022/09/22 01:21:27;;;;;;;;;;;;;;;8.88;73.37;102407.44;5043835;28;19917;-57
2022/09/22 01:23:58;;;;;;;;;;;;;;;8.87;73.34;102403.09;5043056;28;20000;-58
2022/09/22 01:26:53;;;;;;;;;;;;;;;8.87;73.68;102389.00;5045373;28;19928;-57
2022/09/22 01:29:20;;;;;;;;;;;;;;;8.86;73.47;102396.13;4991831;28;19945;-58
2022/09/22 01:31:48;;;;;;;;;;;;;;;8.83;73.39;102388.41;5045580;28;19923;-58
2022/09/22 01:34:17;;;;;;;;;;;;;;;8.82;73.98;102394.69;5044606;28;20003;-58
2022/09/22 01:36:42;;;;;;;;;;;;;;;8.82;74.10;102391.19;5047227;28;20384;-58
2022/09/22 01:39:24;;;;;;;;;;;;;;;8.82;73.96;102393.84;5048306;28;21470;-58
2022/09/22 01:41:57;;;;;;;;;;;;;;;8.80;74.42;102391.31;5046388;28;20088;-58
2022/09/22 01:44:29;;;;;;;;;;;;;;;8.78;74.34;102389.75;5048627;28;20499;-58
2022/09/22 01:46:59;;;;;;;;;;;;;;;8.72;74.55;102385.78;5042334;28;19917;-57
2022/09/22 01:49:27;;;;;;;;;;;;;;;8.68;74.42;102387.00;5048033;28;19924;-57
2022/09/22 01:51:55;;;;;;;;;;;;;;;8.63;74.46;102381.19;5044474;28;19932;-57
2022/09/22 01:54:32;;;;;;;;;;;;;;;8.64;74.17;102386.34;5045572;28;19971;-56
2022/09/22 01:57:04;;;;;;;;;;;;;;;8.63;73.96;102381.19;5043920;28;19935;-57
2022/09/22 01:59:32;;;;;;;;;;;;;;;8.63;74.21;102373.25;5046548;28;19917;-57
2022/09/22 02:02:01;;;;;;;;;;;;;;;8.63;74.22;102370.59;5046462;28;19920;-57
2022/09/22 02:04:34;;;;;;;;;;;;;;;8.61;74.23;102361.94;5044947;28;20007;-58
2022/09/22 02:07:08;;;;;;;;;;;;;;;8.57;74.07;102369.28;5042863;28;19948;-58
2022/09/22 02:09:34;;;;;;;;;;;;;;;8.54;73.90;102366.88;5044444;28;20383;-57
2022/09/22 02:12:00;;;;;;;;;;;;;;;8.51;73.99;102369.75;5044687;28;20003;-58
2022/09/22 02:14:25;;;;;;;;;;;;;;;8.52;73.98;102367.94;5043835;28;21042;-57
2022/09/22 02:16:51;;;;;;;;;;;;;;;8.54;74.17;102360.72;5046051;28;19920;-57
2022/09/22 02:19:22;;;;;;;;;;;;;;;8.54;74.21;102358.94;5044298;28;19925;-57
2022/09/22 02:21:47;;;;;;;;;;;;;;;8.53;74.63;102359.88;5044009;28;20004;-56
2022/09/22 02:24:32;;;;;;;;;;;;;;;8.54;74.72;102355.44;5047412;28;20007;-58
2022/09/22 02:26:59;;;;;;;;;;;;;;;8.53;74.90;102354.59;5040154;28;19996;-57
2022/09/22 02:29:27;;;;;;;;;;;;;;;8.51;74.89;102348.56;5043520;28;19917;-57
2022/09/22 02:31:53;;;;;;;;;;;;;;;8.49;74.99;102347.00;5042734;28;19917;-57
2022/09/22 02:34:18;;;;;;;;;;;;;;;8.49;74.70;102349.66;5037370;28;19928;-57
2022/09/22 02:36:49;;;;;;;;;;;;;;;8.50;74.60;102346.06;5042985;28;19920;-58
2022/09/22 02:39:33;;;;;;;;;;;;;;;8.47;74.70;102349.78;5048348;28;19917;-57
2022/09/22 02:41:58;;;;;;;;;;;;;;;8.44;74.77;102341.25;5043432;28;20417;-58
2022/09/22 02:44:45;;;;;;;;;;;;;;;8.45;74.63;102334.97;5043977;28;19929;-58
2022/09/22 02:47:31;;;;;;;;;;;;;;;8.45;74.56;102335.81;5041354;28;19921;-57
2022/09/22 02:49:56;;;;;;;;;;;;;;;8.45;74.44;102327.03;5045131;28;19940;-57
2022/09/22 02:52:23;;;;;;;;;;;;;;;8.41;74.73;102329.09;5043244;28;20315;-57
2022/09/22 02:54:48;;;;;;;;;;;;;;;8.38;74.56;102337.25;5046944;28;19967;-57
2022/09/22 02:57:13;;;;;;;;;;;;;;;8.35;74.35;102333.03;5046181;28;19963;-57
2022/09/22 02:59:38;;;;;;;;;;;;;;;8.33;74.46;102332.31;5047215;28;20364;-57
2022/09/22 03:02:03;;;;;;;;;;;;;;;8.32;74.54;102325.31;5044817;28;20244;-58
2022/09/22 03:04:28;;;;;;;;;;;;;;;8.31;74.49;102333.38;5043351;28;19924;-58
2022/09/22 03:06:54;;;;;;;;;;;;;;;8.29;74.85;102333.47;5052366;28;19912;-58
2022/09/22 03:09:19;;;;;;;;;;;;;;;8.27;74.76;102330.13;5048208;28;20395;-57
2022/09/22 03:11:44;;;;;;;;;;;;;;;8.26;74.48;102331.06;5052979;28;19913;-58
2022/09/22 03:14:09;;;;;;;;;;;;;;;8.24;74.90;102325.06;5048259;28;19920;-57
2022/09/22 03:16:34;;;;;;;;;;;;;;;8.21;74.59;102327.09;5048087;28;19921;-58
2022/09/22 03:19:00;;;;;;;;;;;;;;;8.18;74.69;102330.00;5053827;28;20347;-57
2022/09/22 03:21:25;;;;;;;;;;;;;;;8.14;74.95;102321.47;5052494;28;19920;-58
2022/09/22 03:23:50;;;;;;;;;;;;;;;8.09;74.80;102318.28;5047526;28;19912;-58
2022/09/22 03:26:15;;;;;;;;;;;;;;;8.08;74.78;102324.53;5047304;28;20742;-58
2022/09/22 03:28:42;;;;;;;;;;;;;;;8.06;74.58;102321.19;5047628;28;20415;-58
2022/09/22 03:31:08;;;;;;;;;;;;;;;8.05;74.83;102322.97;5041057;28;20039;-57
2022/09/22 03:33:33;;;;;;;;;;;;;;;8.02;74.59;102323.22;5045380;28;20404;-58
2022/09/22 03:35:58;;;;;;;;;;;;;;;8.02;74.55;102319.72;5042572;28;19924;-57
2022/09/22 03:38:23;;;;;;;;;;;;;;;8.02;74.55;102325.03;5042550;28;19924;-57
2022/09/22 03:40:49;;;;;;;;;;;;;;;8.01;74.81;102318.03;5042951;28;19925;-57
2022/09/22 03:43:16;;;;;;;;;;;;;;;7.99;74.46;102319.97;5041581;28;19928;-58
2022/09/22 03:45:41;;;;;;;;;;;;;;;7.96;74.55;102312.28;5043942;28;19924;-57
2022/09/22 03:48:06;;;;;;;;;;;;;;;7.96;74.72;102309.63;5041757;28;19927;-58
2022/09/22 03:50:31;;;;;;;;;;;;;;;7.95;74.60;102314.06;5045273;28;20378;-58
2022/09/22 03:52:56;;;;;;;;;;;;;;;7.94;74.79;102315.03;5039155;28;19917;-58
2022/09/22 03:55:23;;;;;;;;;;;;;;;7.94;74.61;102312.38;5046033;28;20343;-58
2022/09/22 03:57:48;;;;;;;;;;;;;;;7.94;74.40;102314.19;5048928;28;19916;-57
2022/09/22 04:00:13;;;;;;;;;;;;;;;7.95;74.29;102310.59;5041877;28;19940;-56
2022/09/22 04:02:39;;;;;;;;;;;;;;;7.96;74.18;102317.56;5047988;28;19917;-58
2022/09/22 04:05:04;;;;;;;;;;;;;;;7.96;74.21;102307.81;5046257;28;19921;-57
2022/09/22 04:07:29;;;;;;;;;;;;;;;7.94;74.11;102309.75;5047065;28;19947;-58
2022/09/22 04:09:54;;;;;;;;;;;;;;;7.92;74.13;102300.25;5047076;28;19952;-57
2022/09/22 04:12:19;;;;;;;;;;;;;;;7.90;74.62;102299.53;5046816;28;20521;-57
2022/09/22 04:14:45;;;;;;;;;;;;;;;7.88;74.25;102294.34;5047875;28;20305;-56
2022/09/22 04:17:10;;;;;;;;;;;;;;;7.88;74.52;102290.88;5047028;28;19917;-56
2022/09/22 04:19:35;;;;;;;;;;;;;;;7.85;74.64;102293.75;5047030;28;19928;-59
2022/09/22 04:22:02;;;;;;;;;;;;;;;7.84;74.35;102292.91;5043370;28;20387;-59
2022/09/22 04:24:27;;;;;;;;;;;;;;;7.82;74.44;102294.81;5047909;28;19925;-58
2022/09/22 04:26:52;;;;;;;;;;;;;;;7.81;74.44;102292.31;5048239;28;20007;-58
2022/09/22 04:29:17;;;;;;;;;;;;;;;7.78;74.36;102288.06;5046737;28;19917;-58
2022/09/22 04:31:42;;;;;;;;;;;;;;;7.75;74.78;102289.13;5047288;28;19974;-58
2022/09/22 04:34:08;;;;;;;;;;;;;;;7.73;74.72;102296.34;5045391;28;20514;-57
2022/09/22 04:36:33;;;;;;;;;;;;;;;7.72;74.97;102283.25;5047263;28;19966;-57
2022/09/22 04:39:01;;;;;;;;;;;;;;;7.72;74.83;102281.44;5045797;28;20408;-58
2022/09/22 04:41:27;;;;;;;;;;;;;;;7.70;75.07;102283.38;5043991;28;19924;-57
2022/09/22 04:43:52;;;;;;;;;;;;;;;7.68;74.80;102290.56;5047840;28;19917;-58
2022/09/22 04:46:17;;;;;;;;;;;;;;;7.63;75.11;102286.59;5044705;28;20376;-58
2022/09/22 04:48:42;;;;;;;;;;;;;;;7.57;74.96;102289.72;5046725;28;20390;-57
2022/09/22 04:51:07;;;;;;;;;;;;;;;7.51;75.24;102284.84;5042958;28;20039;-57
2022/09/22 04:53:33;;;;;;;;;;;;;;;7.45;75.31;102286.16;5048778;28;20313;-58
2022/09/22 04:55:58;;;;;;;;;;;;;;;7.41;75.34;102287.34;5049476;28;20011;-58
2022/09/22 04:58:23;;;;;;;;;;;;;;;7.36;75.50;102285.06;5049727;28;20308;-57
2022/09/22 05:00:48;;;;;;;;;;;;;;;7.30;75.40;102279.41;5044073;28;19920;-58
2022/09/22 05:03:14;;;;;;;;;;;;;;;7.25;75.49;102292.94;5042944;28;20013;-57
2022/09/22 05:05:39;;;;;;;;;;;;;;;7.23;75.52;102288.72;5044885;28;19925;-58
2022/09/22 05:08:04;;;;;;;;;;;;;;;7.21;75.39;102290.63;5044457;28;19960;-57
2022/09/22 05:10:34;;;;;;;;;;;;;;;7.20;75.73;102291.56;5045506;28;19917;-57
2022/09/22 05:12:59;;;;;;;;;;;;;;;7.21;75.78;102294.09;5045827;28;19917;-57
2022/09/22 05:15:25;;;;;;;;;;;;;;;7.22;75.94;102294.94;5046179;28;19970;-57
2022/09/22 05:17:51;;;;;;;;;;;;;;;7.22;75.80;102295.78;5046399;28;19966;-57
2022/09/22 05:20:17;;;;;;;;;;;;;;;7.26;75.89;102293.78;5045819;28;20394;-57
2022/09/22 05:22:43;;;;;;;;;;;;;;;7.24;75.61;102296.56;5046575;28;19978;-58
2022/09/22 05:25:13;;;;;;;;;;;;;;;7.24;75.79;102293.06;5043217;28;20311;-58
2022/09/22 05:27:47;;;;;;;;;;;;;;;7.24;76.18;102293.06;5043836;28;19916;-57
2022/09/22 05:30:12;;;;;;;;;;;;;;;7.23;76.37;102301.91;5045524;28;19924;-57
2022/09/22 05:32:40;;;;;;;;;;;;;;;7.24;76.44;102301.00;5045287;28;19924;-56
2022/09/22 05:35:06;;;;;;;;;;;;;;;7.24;76.19;102293.06;5047021;28;20018;-57
2022/09/22 05:37:31;;;;;;;;;;;;;;;7.24;76.20;102304.47;5045633;28;20280;-57
2022/09/22 05:39:56;;;;;;;;;;;;;;;7.25;76.00;102302.69;5045904;28;19917;-58
2022/09/22 05:42:22;;;;;;;;;;;;;;;7.27;76.10;102298.13;5042498;28;19982;-57
2022/09/22 05:44:47;;;;;;;;;;;;;;;7.29;76.06;102291.75;5042740;28;19925;-57
2022/09/22 05:47:13;;;;;;;;;;;;;;;7.31;76.13;102302.22;5044810;28;19986;-58
2022/09/22 05:49:38;;;;;;;;;;;;;;;7.32;76.08;102303.91;5042035;28;20023;-57
2022/09/22 05:52:03;;;;;;;;;;;;;;;7.34;76.39;102309.91;5044708;28;20372;-58
2022/09/22 05:54:28;;;;;;;;;;;;;;;7.36;76.28;102300.91;5044881;28;20443;-58
2022/09/22 05:56:54;;;;;;;;;;;;;;;7.37;76.19;102299.97;5048362;28;19924;-58
2022/09/22 05:59:19;;;;;;;;;;;;;;;7.39;76.60;102298.03;5044908;28;19912;-58
2022/09/22 06:01:44;;;;;;;;;;;;;;;7.46;76.87;102295.78;5047972;28;19912;-58
2022/09/22 06:04:10;;;;;;;;;;;;;;;7.50;77.09;102304.31;5048482;28;19919;-58
2022/09/22 06:06:35;;;;;;;;;;;;;;;7.52;77.31;102305.91;5043593;28;19948;-57
2022/09/22 06:09:00;;;;;;;;;;;;;;;7.58;77.23;102308.09;5043932;28;19974;-58
2022/09/22 06:11:25;;;;;;;;;;;;;;;7.62;77.44;102314.00;5042204;28;19917;-57
2022/09/22 06:13:50;;;;;;;;;;;;;;;7.66;77.35;102312.81;5041613;28;19920;-57
2022/09/22 06:16:16;;;;;;;;;;;;;;;7.70;77.14;102309.81;5042191;28;20351;-57
2022/09/22 06:18:44;;;;;;;;;;;;;;;7.77;77.37;102310.19;5042822;28;19932;-57
2022/09/22 06:21:10;;;;;;;;;;;;;;;7.84;77.79;102308.78;5040486;28;20288;-58
2022/09/22 06:23:35;;;;;;;;;;;;;;;7.91;77.56;102312.63;5044912;28;19924;-57
2022/09/22 06:26:00;;;;;;;;;;;;;;;7.99;77.79;102315.53;5047511;28;20418;-57
2022/09/22 06:28:25;;;;;;;;;;;;;;;8.08;78.04;102306.03;5048868;28;19913;-56
2022/09/22 06:30:50;;;;;;;;;;;;;;;8.18;78.75;102309.66;5052337;28;19923;-57
2022/09/22 06:33:16;;;;;;;;;;;;;;;8.28;78.78;102307.97;5044990;28;19943;-58
2022/09/22 06:35:41;;;;;;;;;;;;;;;8.37;78.71;102304.63;5045207;28;19912;-58
2022/09/22 06:38:08;;;;;;;;;;;;;;;8.43;78.90;102305.16;5045691;28;19920;-58
2022/09/22 06:40:35;;;;;;;;;;;;;;;8.51;79.12;102308.84;5049823;28;20431;-57
2022/09/22 06:43:06;;;;;;;;;;;;;;;8.59;79.03;102302.94;5045847;28;19939;-58
2022/09/22 06:45:32;;;;;;;;;;;;;;;8.67;79.79;102306.69;5048443;28;19978;-57
2022/09/22 06:47:57;;;;;;;;;;;;;;;8.79;79.47;102310.16;5039715;28;19921;-58
2022/09/22 06:50:23;;;;;;;;;;;;;;;8.88;79.91;102305.91;5042062;28;19917;-58
2022/09/22 06:52:50;;;;;;;;;;;;;;;8.95;80.13;102309.75;5030951;28;19917;-58
2022/09/22 06:55:19;;;;;;;;;;;;;;;9.00;80.19;102311.09;5038325;28;19917;-58
2022/09/22 06:57:44;;;;;;;;;;;;;;;9.09;79.79;102308.66;5041508;28;20396;-56
2022/09/22 07:00:10;;;;;;;;;;;;;;;9.16;79.53;102305.38;5038202;28;19979;-58
2022/09/22 07:02:35;;;;;;;;;;;;;;;9.19;79.09;102302.47;5043836;28;19932;-57
2022/09/22 07:05:01;;;;;;;;;;;;;;;9.26;79.39;102308.13;5041021;28;20129;-57
2022/09/22 07:07:27;;;;;;;;;;;;;;;9.29;79.05;102306.06;5041428;28;19921;-57
2022/09/22 07:09:53;;;;;;;;;;;;;;;9.32;78.82;102304.97;5048571;28;19962;-57
2022/09/22 07:12:20;;;;;;;;;;;;;;;9.35;78.71;102299.41;5048908;28;19912;-57
2022/09/22 07:14:48;;;;;;;;;;;;;;;9.43;78.78;102290.81;5047009;28;19919;-57
2022/09/22 07:17:13;;;;;;;;;;;;;;;9.50;79.64;102287.50;5046192;28;19987;-57
2022/09/22 07:19:39;;;;;;;;;;;;;;;9.59;80.18;102292.06;5044556;28;19925;-57
2022/09/22 07:22:05;;;;;;;;;;;;;;;9.68;80.44;102305.53;5044400;28;19919;-56
2022/09/22 07:24:30;;;;;;;;;;;;;;;9.73;80.36;102295.34;5049217;28;20003;-56
2022/09/22 07:26:56;;;;;;;;;;;;;;;9.80;80.34;102294.69;5041675;28;20055;-57
2022/09/22 07:29:22;;;;;;;;;;;;;;;9.89;80.22;102287.78;5041929;28;19919;-57
2022/09/22 07:31:47;;;;;;;;;;;;;;;9.96;79.86;102296.91;5050260;28;21685;-57
2022/09/22 07:34:13;;;;;;;;;;;;;;;10.01;80.28;102285.91;5050928;28;19928;-57
2022/09/22 07:36:38;;;;;;;;;;;;;;;10.07;79.84;102288.84;5051398;28;19916;-56
2022/09/22 07:39:06;;;;;;;;;;;;;;;10.15;80.19;102289.06;5045608;28;19920;-57
2022/09/22 07:41:40;;;;;;;;;;;;;;;10.26;80.11;102293.47;5044357;28;19917;-58
2022/09/22 07:46:49;;;;;;;;;;;;;;;10.42;80.01;102283.19;5042329;28;20295;-58
2022/09/22 07:49:16;;;;;;;;;;;;;;;10.48;79.80;102292.44;5050066;28;20478;-58
2022/09/22 07:51:41;;;;;;;;;;;;;;;10.58;79.84;102290.66;5050036;28;20284;-57
2022/09/22 07:54:07;;;;;;;;;;;;;;;10.67;79.58;102294.31;5050111;28;20399;-58
2022/09/22 07:56:57;;;;;;;;;;;;;;;10.73;79.83;102294.63;5054969;28;19952;-57
2022/09/22 07:59:22;;;;;;;;;;;;;;;10.81;79.39;102297.44;5049539;28;19952;-56
2022/09/22 08:01:49;;;;;;;;;;;;;;;10.91;79.29;102289.47;5050396;28;19960;-57
2022/09/22 08:04:16;;;;;;;;;;;;;;;10.97;79.00;102293.38;5051188;28;19943;-57
2022/09/22 08:06:42;;;;;;;;;;;;;;;11.03;79.02;102291.06;5051733;28;20004;-57
2022/09/22 08:09:08;;;;;;;;;;;;;;;11.08;78.79;102288.81;5050346;28;19964;-58
2022/09/22 08:11:33;;;;;;;;;;;;;;;11.16;78.39;102277.47;5048690;28;19990;-56
2022/09/22 08:13:59;;;;;;;;;;;;;;;11.25;78.58;102279.28;5038083;28;19995;-56
2022/09/22 08:16:29;;;;;;;;;;;;;;;11.33;78.53;102279.44;5049859;28;19957;-57
2022/09/22 08:18:55;;;;;;;;;;;;;;;11.41;78.10;102273.41;5053115;28;20202;-57
2022/09/22 08:21:34;;;;;;;;;;;;;;;11.49;78.10;102274.38;5045235;28;19916;-56
2022/09/22 08:23:59;;;;;;;;;;;;;;;11.56;77.74;102272.00;5050180;28;19913;-56
2022/09/22 08:26:26;;;;;;;;;;;;;;;11.62;77.75;102273.28;5048988;28;20226;-57
2022/09/22 08:28:53;;;;;;;;;;;;;;;11.70;77.81;102274.22;5049845;28;20007;-56
2022/09/22 08:31:21;;;;;;;;;;;;;;;11.76;77.26;102278.97;5055031;28;19916;-57
2022/09/22 08:33:48;;;;;;;;;;;;;;;11.84;77.25;102274.78;5049953;28;19974;-57
2022/09/22 08:36:13;;;;;;;;;;;;;;;11.91;77.25;102282.06;5056880;28;19917;-56
2022/09/22 08:38:38;;;;;;;;;;;;;;;11.99;76.79;102268.03;5049511;28;19920;-57
2022/09/22 08:41:11;;;;;;;;;;;;;;;12.06;76.81;102275.28;5046104;28;19928;-55
2022/09/22 08:43:42;;;;;;;;;;;;;;;12.17;76.81;102270.78;5051875;28;20349;-57
2022/09/22 08:46:07;;;;;;;;;;;;;;;12.25;76.55;102269.06;5049698;28;20348;-55
2022/09/22 08:54:08;;;;;;;;;;;;;;;12.48;76.39;102272.19;5044052;28;19967;-57
2022/09/22 08:56:39;;;;;;;;;;;;;;;12.58;76.23;102272.97;5049446;28;19952;-57
2022/09/22 08:59:13;;;;;;;;;;;;;;;12.69;75.92;102274.59;5041897;28;20008;-57
2022/09/22 09:01:46;;;;;;;;;;;;;;;12.79;75.73;102272.72;5047070;28;20110;-57
2022/09/22 09:04:34;;;;;;;;;;;;;;;12.88;75.47;102269.13;5048542;28;19943;-56
2022/09/22 09:07:06;;;;;;;;;;;;;;;12.97;74.74;102276.22;5049146;28;19966;-58
2022/09/22 09:09:50;;;;;;;;;;;;;;;13.11;74.63;102274.03;5049889;28;19921;-56
2022/09/22 09:12:21;;;;;;;;;;;;;;;13.25;74.36;102278.84;5047179;28;20399;-56
2022/09/22 09:14:52;;;;;;;;;;;;;;;13.36;74.06;102281.31;5041083;28;19914;-55
2022/09/22 09:17:27;;;;;;;;;;;;;;;13.52;73.87;102281.44;5050136;28;19924;-57
2022/09/22 09:20:00;;;;;;;;;;;;;;;13.67;73.60;102275.56;5048956;28;19928;-57
2022/09/22 09:22:36;;;;;;;;;;;;;;;13.83;72.84;102278.31;5047409;28;19912;-55
2022/09/22 09:25:04;;;;;;;;;;;;;;;14.06;72.57;102271.47;5045277;28;19916;-57
2022/09/22 09:27:33;;;;;;;;;;;;;;;14.23;71.58;102275.91;5049153;28;19913;-56
2022/09/22 09:29:59;;;;;;;;;;;;;;;14.44;71.09;102274.69;5050096;28;20003;-56
2022/09/22 09:32:33;;;;;;;;;;;;;;;14.62;69.85;102277.25;5048517;28;20031;-56
2022/09/22 09:34:59;;;;;;;;;;;;;;;14.78;68.96;102271.97;5046461;28;19913;-57
2022/09/22 09:37:24;;;;;;;;;;;;;;;14.98;68.59;102269.84;5055566;28;19919;-57
2022/09/22 09:39:50;;;;;;;;;;;;;;;15.15;69.15;102274.22;5049786;28;20029;-56
2022/09/22 09:42:24;;;;;;;;;;;;;;;15.26;69.20;102267.69;5048795;28;19912;-57
2022/09/22 09:44:52;;;;;;;;;;;;;;;15.35;69.00;102267.56;5048767;28;19917;-57
2022/09/22 09:47:23;;;;;;;;;;;;;;;15.45;68.19;102265.53;5049868;28;19917;-57
2022/09/22 09:49:49;;;;;;;;;;;;;;;15.55;67.60;102273.38;5056825;28;19919;-56
2022/09/22 09:52:14;;;;;;;;;;;;;;;15.66;65.84;102270.41;5049200;28;19935;-57
2022/09/22 09:54:41;;;;;;;;;;;;;;;15.82;63.96;102271.38;5053074;28;19934;-57
2022/09/22 09:57:06;;;;;;;;;;;;;;;15.98;63.39;102274.06;5049540;28;19913;-56
2022/09/22 10:02:36;;;;;;;;;;;;;;;16.27;61.96;102270.78;5048293;28;19924;-56
2022/09/22 10:05:03;;;;;;;;;;;;;;;16.43;60.93;102268.03;5048998;28;19952;-55
2022/09/22 10:07:38;;;;;;;;;;;;;;;16.51;61.09;102259.13;5048137;28;19913;-56
2022/09/22 10:10:22;;;;;;;;;;;;;;;16.62;61.46;102264.94;5049124;28;19916;-57
2022/09/22 10:12:47;;;;;;;;;;;;;;;16.77;60.69;102270.44;5047358;28;19952;-57
2022/09/22 10:15:23;;;;;;;;;;;;;;;16.82;59.94;102264.53;5048699;28;19947;-56
2022/09/22 10:17:50;;;;;;;;;;;;;;;16.82;59.03;102260.00;5046357;28;19978;-56
2022/09/22 10:20:15;;;;;;;;;;;;;;;16.87;59.63;102262.97;5048894;28;19916;-57
2022/09/22 10:22:41;;;;;;;;;;;;;;;16.91;59.58;102258.91;5048879;28;19913;-56
2022/09/22 10:25:18;;;;;;;;;;;;;;;16.96;59.97;102253.03;5048973;28;19971;-57
2022/09/22 10:27:57;;;;;;;;;;;;;;;16.98;60.38;102251.81;5048282;28;19948;-56
2022/09/22 10:30:22;;;;;;;;;;;;;;;17.01;59.81;102250.63;5046206;28;19924;-57
2022/09/22 10:33:06;;;;;;;;;;;;;;;17.04;59.83;102243.06;5045059;28;19999;-58
2022/09/22 10:35:32;;;;;;;;;;;;;;;17.08;58.91;102242.72;5041001;28;20004;-57
2022/09/22 10:38:06;;;;;;;;;;;;;;;17.09;59.28;102241.72;5040864;28;19929;-56
2022/09/22 10:40:32;;;;;;;;;;;;;;;17.06;58.46;102245.59;5041622;28;19978;-58
2022/09/22 10:42:58;;;;;;;;;;;;;;;17.07;57.08;102239.19;5036226;28;19921;-58
2022/09/22 10:45:38;;;;;;;;;;;;;;;17.11;57.01;102234.31;5039801;28;19928;-59
2022/09/22 10:48:10;;;;;;;;;;;;;;;17.11;57.01;102229.78;5039467;28;19916;-58
2022/09/22 10:50:53;;;;;;;;;;;;;;;17.10;56.87;102224.59;5044754;28;20454;-59
2022/09/22 10:53:54;;;;;;;;;;;;;;;17.11;56.64;102221.72;5042226;28;19921;-57
2022/09/22 10:56:42;;;;;;;;;;;;;;;17.12;55.50;102222.56;5024570;28;19917;-56
2022/09/22 10:59:26;;;;;;;;;;;;;;;17.18;54.88;102227.19;5037429;28;19917;-57
2022/09/22 11:02:17;;;;;;;;;;;;;;;17.19;53.13;102218.13;5044113;28;19913;-56
2022/09/22 11:04:52;;;;;;;;;;;;;;;17.18;51.80;102225.34;5048696;28;19948;-57
2022/09/22 11:13:08;;;;;;;;;;;;;;;17.26;50.85;102208.31;5045519;28;19971;-57
2022/09/22 11:15:42;;;;;;;;;;;;;;;17.34;50.59;102210.94;5052498;28;19916;-58
2022/09/22 11:18:16;;;;;;;;;;;;;;;17.38;49.84;102212.25;5052746;28;19923;-58
2022/09/22 11:20:47;;;;;;;;;;;;;;;17.41;50.27;102214.59;5051839;28;20538;-56
2022/09/22 11:23:15;;;;;;;;;;;;;;;17.45;50.47;102218.56;5054744;28;19923;-59
2022/09/22 11:25:41;;;;;;;;;;;;;;;17.52;50.12;102199.88;5052671;28;19917;-58
2022/09/22 11:28:09;;;;;;;;;;;;;;;17.57;50.01;102200.97;5043327;28;19917;-56
2022/09/22 11:30:53;;;;;;;;;;;;;;;17.63;49.94;102196.72;5047910;28;19948;-59
2022/09/22 11:33:29;;;;;;;;;;;;;;;17.70;50.36;102192.34;5048650;28;19917;-59
2022/09/22 11:36:01;;;;;;;;;;;;;;;17.83;50.22;102194.38;5049404;28;20362;-59
2022/09/22 11:38:35;;;;;;;;;;;;;;;17.85;49.22;102195.00;5050079;28;20011;-59
2022/09/22 11:41:00;;;;;;;;;;;;;;;17.83;48.93;102189.81;5049355;28;19991;-59
2022/09/22 11:43:53;;;;;;;;;;;;;;;17.85;48.22;102187.78;5046716;28;19999;-59
2022/09/22 11:46:39;;;;;;;;;;;;;;;17.76;48.13;102186.22;5049730;28;19916;-58
2022/09/22 11:49:09;;;;;;;;;;;;;;;17.71;47.99;102182.41;5019989;28;19996;-59
2022/09/22 11:51:37;;;;;;;;;;;;;;;17.72;48.21;102181.41;5050959;28;19923;-56
2022/09/22 11:54:08;;;;;;;;;;;;;;;17.75;47.58;102179.19;5051548;28;19966;-58
2022/09/22 11:56:42;;;;;;;;;;;;;;;17.80;48.12;102170.56;5051160;28;20461;-58
2022/09/22 11:59:12;;;;;;;;;;;;;;;17.87;47.61;102155.34;5050658;28;19913;-58
2022/09/22 12:01:40;;;;;;;;;;;;;;;17.92;47.83;102158.31;5042195;28;20019;-59
2022/09/22 12:04:17;;;;;;;;;;;;;;;18.03;46.76;102157.84;5046793;28;20392;-58
2022/09/22 12:06:44;;;;;;;;;;;;;;;18.10;46.91;102150.69;5042670;28;19921;-59
2022/09/22 12:09:25;;;;;;;;;;;;;;;18.18;47.53;102149.75;5045242;28;19925;-56
2022/09/22 12:11:52;;;;;;;;;;;;;;;18.25;47.42;102146.13;5046321;28;20007;-59
2022/09/22 12:14:17;;;;;;;;;;;;;;;18.32;47.44;102142.69;5050744;28;20029;-59
2022/09/22 12:17:08;;;;;;;;;;;;;;;18.43;48.37;102134.09;5053753;28;20376;-57
2022/09/22 12:19:54;;;;;;;;;;;;;;;18.53;48.00;102130.09;5054258;28;19989;-56
2022/09/22 12:22:32;;;;;;;;;;;;;;;18.57;47.29;102130.53;5050022;28;19913;-59
2022/09/22 12:24:57;;;;;;;;;;;;;;;18.61;46.72;102129.13;5050590;28;19917;-58
2022/09/22 12:27:24;;;;;;;;;;;;;;;18.63;46.14;102134.34;5051225;28;20012;-59
2022/09/22 12:30:02;;;;;;;;;;;;;;;18.70;46.18;102129.84;5050792;28;19985;-58
2022/09/22 12:32:35;;;;;;;;;;;;;;;18.66;45.17;102124.03;5046760;28;20368;-58
2022/09/22 12:35:01;;;;;;;;;;;;;;;18.56;45.15;102123.50;5041430;28;19913;-57
2022/09/22 12:37:28;;;;;;;;;;;;;;;18.55;44.80;102121.81;5050704;28;20307;-59
2022/09/22 12:39:54;;;;;;;;;;;;;;;18.56;44.75;102112.72;5049860;28;20023;-58
2022/09/22 12:42:21;;;;;;;;;;;;;;;18.66;44.97;102107.03;5049700;28;19920;-58
2022/09/22 12:44:58;;;;;;;;;;;;;;;18.78;45.32;102109.00;5050399;28;19920;-59
2022/09/22 12:47:34;;;;;;;;;;;;;;;18.97;45.96;102101.31;5048390;28;19912;-57
2022/09/22 12:50:01;;;;;;;;;;;;;;;19.11;45.44;102101.22;5050038;28;19919;-58
2022/09/22 12:52:55;;;;;;;;;;;;;;;19.22;44.71;102096.31;5049497;28;19916;-59
2022/09/22 12:55:24;;;;;;;;;;;;;;;19.18;43.84;102102.09;5050395;28;19990;-58
2022/09/22 12:57:50;;;;;;;;;;;;;;;19.13;44.21;102101.03;5049609;28;20388;-59
2022/09/22 13:00:21;;;;;;;;;;;;;;;19.03;43.62;102100.53;5050822;28;19924;-58
2022/09/22 13:02:48;;;;;;;;;;;;;;;19.08;44.05;102095.38;5052026;28;20442;-58
2022/09/22 13:05:23;;;;;;;;;;;;;;;19.10;43.79;102093.34;5044928;28;20043;-57
2022/09/22 13:07:48;;;;;;;;;;;;;;;19.08;43.74;102095.38;5042543;28;19921;-59
2022/09/22 13:10:22;;;;;;;;;;;;;;;19.14;44.54;102100.00;5045806;28;19917;-58